sensor_id;sensor_type;location;lat;lon;timestamp;temperature;humidity
13113;DHT22;6622;49.752;6.100;2022-07-05T00:00:00;14.80;99.90
13113;DHT22;6622;49.752;6.100;2022-07-05T00:02:26;14.90;99.90
13113;DHT22;6622;49.752;6.100;2022-07-05T00:04:53;14.90;99.90
13113;DHT22;6622;49.752;6.100;2022-07-05T00:07:20;14.80;99.90
13113;DHT22;6622;49.752;6.100;2022-07-05T00:09:53;14.60;99.90
13113;DHT22;6622;49.752;6.100;2022-07-05T00:12:19;14.60;99.90
13113;DHT22;6622;49.752;6.100;2022-07-05T00:14:45;14.40;99.90
13113;DHT22;6622;49.752;6.100;2022-07-05T00:17:12;14.30;99.90
13113;DHT22;6622;49.752;6.100;2022-07-05T00:19:38;14.30;99.90
13113;DHT22;6622;49.752;6.100;2022-07-05T00:22:05;14.20;99.90
13113;DHT22;6622;49.752;6.100;2022-07-05T00:24:32;14.20;99.90
13113;DHT22;6622;49.752;6.100;2022-07-05T00:26:59;14.20;99.90
13113;DHT22;6622;49.752;6.100;2022-07-05T00:29:26;14.20;99.90
13113;DHT22;6622;49.752;6.100;2022-07-05T00:31:52;14.10;99.90
13113;DHT22;6622;49.752;6.100;2022-07-05T00:34:20;13.90;99.90
13113;DHT22;6622;49.752;6.100;2022-07-05T00:36:46;13.90;99.90
13113;DHT22;6622;49.752;6.100;2022-07-05T00:39:13;14.00;99.90
13113;DHT22;6622;49.752;6.100;2022-07-05T00:41:40;14.40;99.90
13113;DHT22;6622;49.752;6.100;2022-07-05T00:44:08;14.40;99.90
13113;DHT22;6622;49.752;6.100;2022-07-05T00:46:34;14.50;99.90
13113;DHT22;6622;49.752;6.100;2022-07-05T00:49:00;14.50;99.90
13113;DHT22;6622;49.752;6.100;2022-07-05T00:51:28;14.40;99.90
13113;DHT22;6622;49.752;6.100;2022-07-05T00:53:53;14.00;99.90
13113;DHT22;6622;49.752;6.100;2022-07-05T00:56:20;14.00;99.90
13113;DHT22;6622;49.752;6.100;2022-07-05T00:58:47;14.20;99.90
13113;DHT22;6622;49.752;6.100;2022-07-05T01:01:13;14.30;99.90
13113;DHT22;6622;49.752;6.100;2022-07-05T01:03:40;14.40;99.90
13113;DHT22;6622;49.752;6.100;2022-07-05T01:06:07;14.30;99.90
13113;DHT22;6622;49.752;6.100;2022-07-05T01:08:33;14.30;99.90
13113;DHT22;6622;49.752;6.100;2022-07-05T01:11:00;14.10;99.90
13113;DHT22;6622;49.752;6.100;2022-07-05T01:13:26;13.80;99.90
13113;DHT22;6622;49.752;6.100;2022-07-05T01:15:53;13.60;99.90
13113;DHT22;6622;49.752;6.100;2022-07-05T01:18:20;13.60;99.90
13113;DHT22;6622;49.752;6.100;2022-07-05T01:20:49;13.70;99.90
13113;DHT22;6622;49.752;6.100;2022-07-05T01:23:18;13.60;99.90
13113;DHT22;6622;49.752;6.100;2022-07-05T01:25:42;13.50;99.90
13113;DHT22;6622;49.752;6.100;2022-07-05T01:28:09;13.50;99.90
13113;DHT22;6622;49.752;6.100;2022-07-05T01:30:35;13.40;99.90
13113;DHT22;6622;49.752;6.100;2022-07-05T01:33:02;13.30;99.90
13113;DHT22;6622;49.752;6.100;2022-07-05T01:35:28;13.30;99.90
13113;DHT22;6622;49.752;6.100;2022-07-05T01:37:55;13.30;99.90
13113;DHT22;6622;49.752;6.100;2022-07-05T01:40:22;13.20;99.90
13113;DHT22;6622;49.752;6.100;2022-07-05T01:42:48;13.10;99.90
13113;DHT22;6622;49.752;6.100;2022-07-05T01:45:15;13.00;99.90
13113;DHT22;6622;49.752;6.100;2022-07-05T01:47:42;13.10;99.90
13113;DHT22;6622;49.752;6.100;2022-07-05T01:50:09;13.30;99.90
13113;DHT22;6622;49.752;6.100;2022-07-05T01:52:36;13.20;99.90
13113;DHT22;6622;49.752;6.100;2022-07-05T01:55:02;13.40;99.90
13113;DHT22;6622;49.752;6.100;2022-07-05T01:57:29;13.40;99.90
13113;DHT22;6622;49.752;6.100;2022-07-05T01:59:56;13.10;99.90
13113;DHT22;6622;49.752;6.100;2022-07-05T02:02:23;13.00;99.90
13113;DHT22;6622;49.752;6.100;2022-07-05T02:04:49;12.90;99.90
13113;DHT22;6622;49.752;6.100;2022-07-05T02:07:16;12.90;99.90
13113;DHT22;6622;49.752;6.100;2022-07-05T02:09:43;13.10;99.90
13113;DHT22;6622;49.752;6.100;2022-07-05T02:12:10;13.10;99.90
13113;DHT22;6622;49.752;6.100;2022-07-05T02:14:37;13.20;99.90
13113;DHT22;6622;49.752;6.100;2022-07-05T02:17:04;13.40;99.90
13113;DHT22;6622;49.752;6.100;2022-07-05T02:19:31;13.40;99.90
13113;DHT22;6622;49.752;6.100;2022-07-05T02:21:57;13.50;99.90
13113;DHT22;6622;49.752;6.100;2022-07-05T02:24:24;13.50;99.90
13113;DHT22;6622;49.752;6.100;2022-07-05T02:26:51;13.50;99.90
13113;DHT22;6622;49.752;6.100;2022-07-05T02:29:17;13.40;99.90
13113;DHT22;6622;49.752;6.100;2022-07-05T02:31:44;13.10;99.90
13113;DHT22;6622;49.752;6.100;2022-07-05T02:34:10;12.80;99.90
13113;DHT22;6622;49.752;6.100;2022-07-05T02:36:37;12.80;99.90
13113;DHT22;6622;49.752;6.100;2022-07-05T02:39:04;12.80;99.90
13113;DHT22;6622;49.752;6.100;2022-07-05T02:41:30;12.60;99.90
13113;DHT22;6622;49.752;6.100;2022-07-05T02:43:57;12.40;99.90
13113;DHT22;6622;49.752;6.100;2022-07-05T02:46:24;12.50;99.90
13113;DHT22;6622;49.752;6.100;2022-07-05T02:48:50;12.50;99.90
13113;DHT22;6622;49.752;6.100;2022-07-05T02:51:17;12.60;99.90
13113;DHT22;6622;49.752;6.100;2022-07-05T02:53:43;12.60;99.90
13113;DHT22;6622;49.752;6.100;2022-07-05T02:56:10;12.60;99.90
13113;DHT22;6622;49.752;6.100;2022-07-05T02:58:37;12.50;99.90
13113;DHT22;6622;49.752;6.100;2022-07-05T03:01:03;12.40;99.90
13113;DHT22;6622;49.752;6.100;2022-07-05T03:03:30;12.50;99.90
13113;DHT22;6622;49.752;6.100;2022-07-05T03:05:57;12.40;99.90
13113;DHT22;6622;49.752;6.100;2022-07-05T03:08:24;12.30;99.90
13113;DHT22;6622;49.752;6.100;2022-07-05T03:10:51;12.40;99.90
13113;DHT22;6622;49.752;6.100;2022-07-05T03:13:18;12.60;99.90
13113;DHT22;6622;49.752;6.100;2022-07-05T03:15:45;12.50;99.90
13113;DHT22;6622;49.752;6.100;2022-07-05T03:18:11;12.50;99.90
13113;DHT22;6622;49.752;6.100;2022-07-05T03:20:38;12.40;99.90
13113;DHT22;6622;49.752;6.100;2022-07-05T03:23:05;12.40;99.90
13113;DHT22;6622;49.752;6.100;2022-07-05T03:25:32;12.40;99.90
13113;DHT22;6622;49.752;6.100;2022-07-05T03:27:59;12.20;99.90
13113;DHT22;6622;49.752;6.100;2022-07-05T03:30:25;12.10;99.90
13113;DHT22;6622;49.752;6.100;2022-07-05T03:32:53;12.00;99.90
13113;DHT22;6622;49.752;6.100;2022-07-05T03:35:19;12.00;99.90
13113;DHT22;6622;49.752;6.100;2022-07-05T03:37:46;11.90;99.90
13113;DHT22;6622;49.752;6.100;2022-07-05T03:40:12;11.80;99.90
13113;DHT22;6622;49.752;6.100;2022-07-05T03:42:40;12.00;99.90
13113;DHT22;6622;49.752;6.100;2022-07-05T03:45:07;12.00;99.90
13113;DHT22;6622;49.752;6.100;2022-07-05T03:47:33;12.10;99.90
13113;DHT22;6622;49.752;6.100;2022-07-05T03:50:00;12.20;99.90
13113;DHT22;6622;49.752;6.100;2022-07-05T03:52:26;12.20;99.90
13113;DHT22;6622;49.752;6.100;2022-07-05T03:54:54;12.20;99.90
13113;DHT22;6622;49.752;6.100;2022-07-05T03:57:21;12.20;99.90
13113;DHT22;6622;49.752;6.100;2022-07-05T03:59:47;12.10;99.90
13113;DHT22;6622;49.752;6.100;2022-07-05T04:02:14;12.00;99.90
13113;DHT22;6622;49.752;6.100;2022-07-05T04:04:40;11.90;99.90
13113;DHT22;6622;49.752;6.100;2022-07-05T04:07:07;11.90;99.90
13113;DHT22;6622;49.752;6.100;2022-07-05T04:09:34;12.00;99.90
13113;DHT22;6622;49.752;6.100;2022-07-05T04:12:00;12.00;99.90
13113;DHT22;6622;49.752;6.100;2022-07-05T04:14:27;12.00;99.90
13113;DHT22;6622;49.752;6.100;2022-07-05T04:16:53;11.90;99.90
13113;DHT22;6622;49.752;6.100;2022-07-05T04:19:20;11.90;99.90
13113;DHT22;6622;49.752;6.100;2022-07-05T04:21:47;11.90;99.90
13113;DHT22;6622;49.752;6.100;2022-07-05T04:24:14;11.90;99.90
13113;DHT22;6622;49.752;6.100;2022-07-05T04:26:41;11.90;99.90
13113;DHT22;6622;49.752;6.100;2022-07-05T04:29:07;11.90;99.90
13113;DHT22;6622;49.752;6.100;2022-07-05T04:31:34;11.90;99.90
13113;DHT22;6622;49.752;6.100;2022-07-05T04:34:01;11.90;99.90
13113;DHT22;6622;49.752;6.100;2022-07-05T04:36:27;12.00;99.90
13113;DHT22;6622;49.752;6.100;2022-07-05T04:38:54;12.00;99.90
13113;DHT22;6622;49.752;6.100;2022-07-05T04:41:20;12.20;99.90
13113;DHT22;6622;49.752;6.100;2022-07-05T04:43:47;12.30;99.90
13113;DHT22;6622;49.752;6.100;2022-07-05T04:46:14;12.40;99.90
13113;DHT22;6622;49.752;6.100;2022-07-05T04:48:40;12.40;99.90
13113;DHT22;6622;49.752;6.100;2022-07-05T04:51:07;12.40;99.90
13113;DHT22;6622;49.752;6.100;2022-07-05T04:53:34;12.40;99.90
13113;DHT22;6622;49.752;6.100;2022-07-05T04:56:00;12.50;99.90
13113;DHT22;6622;49.752;6.100;2022-07-05T04:58:27;12.40;99.90
13113;DHT22;6622;49.752;6.100;2022-07-05T05:00:53;12.30;99.90
13113;DHT22;6622;49.752;6.100;2022-07-05T05:03:20;12.30;99.90
13113;DHT22;6622;49.752;6.100;2022-07-05T05:05:47;12.40;99.90
13113;DHT22;6622;49.752;6.100;2022-07-05T05:08:13;12.50;99.90
13113;DHT22;6622;49.752;6.100;2022-07-05T05:10:40;12.50;99.90
13113;DHT22;6622;49.752;6.100;2022-07-05T05:13:07;12.60;99.90
13113;DHT22;6622;49.752;6.100;2022-07-05T05:15:34;12.60;99.90
13113;DHT22;6622;49.752;6.100;2022-07-05T05:18:01;12.70;99.90
13113;DHT22;6622;49.752;6.100;2022-07-05T05:20:28;12.70;99.90
13113;DHT22;6622;49.752;6.100;2022-07-05T05:22:55;12.70;99.90
13113;DHT22;6622;49.752;6.100;2022-07-05T05:25:21;12.90;99.90
13113;DHT22;6622;49.752;6.100;2022-07-05T05:27:48;13.00;99.90
13113;DHT22;6622;49.752;6.100;2022-07-05T05:30:15;13.10;99.90
13113;DHT22;6622;49.752;6.100;2022-07-05T05:32:42;13.40;99.90
13113;DHT22;6622;49.752;6.100;2022-07-05T05:35:09;13.40;99.90
13113;DHT22;6622;49.752;6.100;2022-07-05T05:37:48;13.70;99.90
13113;DHT22;6622;49.752;6.100;2022-07-05T05:40:14;13.90;99.90
13113;DHT22;6622;49.752;6.100;2022-07-05T05:42:41;14.30;99.90
13113;DHT22;6622;49.752;6.100;2022-07-05T05:45:07;14.80;99.90
13113;DHT22;6622;49.752;6.100;2022-07-05T05:47:42;15.20;99.90
13113;DHT22;6622;49.752;6.100;2022-07-05T05:50:00;16.10;99.90
13113;DHT22;6622;49.752;6.100;2022-07-05T05:52:27;16.60;99.90
13113;DHT22;6622;49.752;6.100;2022-07-05T05:54:54;17.00;99.90
13113;DHT22;6622;49.752;6.100;2022-07-05T05:57:20;17.00;99.90
13113;DHT22;6622;49.752;6.100;2022-07-05T05:59:47;17.20;99.90
13113;DHT22;6622;49.752;6.100;2022-07-05T06:02:14;17.70;99.90
13113;DHT22;6622;49.752;6.100;2022-07-05T06:04:41;17.30;99.90
13113;DHT22;6622;49.752;6.100;2022-07-05T06:07:08;17.30;99.90
13113;DHT22;6622;49.752;6.100;2022-07-05T06:09:35;17.20;99.90
13113;DHT22;6622;49.752;6.100;2022-07-05T06:12:02;17.20;99.90
13113;DHT22;6622;49.752;6.100;2022-07-05T06:14:28;17.40;99.90
13113;DHT22;6622;49.752;6.100;2022-07-05T06:16:55;17.40;99.90
13113;DHT22;6622;49.752;6.100;2022-07-05T06:19:22;17.60;99.90
13113;DHT22;6622;49.752;6.100;2022-07-05T06:21:49;17.50;99.90
13113;DHT22;6622;49.752;6.100;2022-07-05T06:24:16;17.80;99.90
13113;DHT22;6622;49.752;6.100;2022-07-05T06:26:42;18.50;99.90
13113;DHT22;6622;49.752;6.100;2022-07-05T06:29:10;19.80;99.90
13113;DHT22;6622;49.752;6.100;2022-07-05T06:31:36;19.70;99.90
13113;DHT22;6622;49.752;6.100;2022-07-05T06:34:03;19.40;99.90
13113;DHT22;6622;49.752;6.100;2022-07-05T06:36:29;19.10;99.90
13113;DHT22;6622;49.752;6.100;2022-07-05T06:38:57;19.20;99.90
13113;DHT22;6622;49.752;6.100;2022-07-05T06:41:23;19.20;99.90
13113;DHT22;6622;49.752;6.100;2022-07-05T06:43:50;19.80;99.90
13113;DHT22;6622;49.752;6.100;2022-07-05T06:46:17;19.80;99.90
13113;DHT22;6622;49.752;6.100;2022-07-05T06:48:43;19.80;99.90
13113;DHT22;6622;49.752;6.100;2022-07-05T06:51:11;19.60;99.90
13113;DHT22;6622;49.752;6.100;2022-07-05T06:53:37;19.60;99.90
13113;DHT22;6622;49.752;6.100;2022-07-05T06:56:04;19.30;99.90
13113;DHT22;6622;49.752;6.100;2022-07-05T06:58:31;19.50;99.90
13113;DHT22;6622;49.752;6.100;2022-07-05T07:00:57;19.80;99.90
13113;DHT22;6622;49.752;6.100;2022-07-05T07:03:24;19.80;99.90
13113;DHT22;6622;49.752;6.100;2022-07-05T07:05:51;20.20;99.90
13113;DHT22;6622;49.752;6.100;2022-07-05T07:08:17;21.00;99.90
13113;DHT22;6622;49.752;6.100;2022-07-05T07:11:02;21.50;99.90
13113;DHT22;6622;49.752;6.100;2022-07-05T07:13:29;22.40;99.90
13113;DHT22;6622;49.752;6.100;2022-07-05T07:15:55;22.90;99.90
13113;DHT22;6622;49.752;6.100;2022-07-05T07:18:22;22.30;99.90
13113;DHT22;6622;49.752;6.100;2022-07-05T07:20:48;22.20;99.90
13113;DHT22;6622;49.752;6.100;2022-07-05T07:23:15;22.30;99.90
13113;DHT22;6622;49.752;6.100;2022-07-05T07:25:42;22.00;99.90
13113;DHT22;6622;49.752;6.100;2022-07-05T07:28:08;22.70;99.90
13113;DHT22;6622;49.752;6.100;2022-07-05T07:30:35;22.40;99.90
13113;DHT22;6622;49.752;6.100;2022-07-05T07:33:02;22.80;99.90
13113;DHT22;6622;49.752;6.100;2022-07-05T07:35:28;22.20;99.90
13113;DHT22;6622;49.752;6.100;2022-07-05T07:37:55;22.10;99.90
13113;DHT22;6622;49.752;6.100;2022-07-05T07:40:21;23.00;99.90
13113;DHT22;6622;49.752;6.100;2022-07-05T07:42:48;24.10;99.90
13113;DHT22;6622;49.752;6.100;2022-07-05T07:45:15;23.60;99.90
13113;DHT22;6622;49.752;6.100;2022-07-05T07:47:42;23.50;99.90
13113;DHT22;6622;49.752;6.100;2022-07-05T07:50:09;24.20;99.90
13113;DHT22;6622;49.752;6.100;2022-07-05T07:52:35;24.00;99.90
13113;DHT22;6622;49.752;6.100;2022-07-05T07:55:03;24.60;99.90
13113;DHT22;6622;49.752;6.100;2022-07-05T07:57:29;24.50;99.90
13113;DHT22;6622;49.752;6.100;2022-07-05T07:59:56;24.70;99.90
13113;DHT22;6622;49.752;6.100;2022-07-05T08:02:23;24.70;99.90
13113;DHT22;6622;49.752;6.100;2022-07-05T08:04:50;25.10;99.90
13113;DHT22;6622;49.752;6.100;2022-07-05T08:07:16;25.50;99.90
13113;DHT22;6622;49.752;6.100;2022-07-05T08:09:43;25.00;99.90
13113;DHT22;6622;49.752;6.100;2022-07-05T08:12:10;24.00;99.90
13113;DHT22;6622;49.752;6.100;2022-07-05T08:14:37;24.00;99.90
13113;DHT22;6622;49.752;6.100;2022-07-05T08:17:03;24.50;99.90
13113;DHT22;6622;49.752;6.100;2022-07-05T08:19:30;24.60;99.90
13113;DHT22;6622;49.752;6.100;2022-07-05T08:22:15;24.40;99.90
13113;DHT22;6622;49.752;6.100;2022-07-05T08:24:42;24.70;99.90
13113;DHT22;6622;49.752;6.100;2022-07-05T08:27:08;24.50;99.90
13113;DHT22;6622;49.752;6.100;2022-07-05T08:29:36;24.10;99.90
13113;DHT22;6622;49.752;6.100;2022-07-05T08:32:02;24.10;99.90
13113;DHT22;6622;49.752;6.100;2022-07-05T08:34:29;24.40;99.90
13113;DHT22;6622;49.752;6.100;2022-07-05T08:36:55;24.70;99.90
13113;DHT22;6622;49.752;6.100;2022-07-05T08:39:22;24.50;99.90
13113;DHT22;6622;49.752;6.100;2022-07-05T08:41:49;25.20;99.90
13113;DHT22;6622;49.752;6.100;2022-07-05T08:44:17;25.40;99.90
13113;DHT22;6622;49.752;6.100;2022-07-05T08:46:42;25.00;99.90
13113;DHT22;6622;49.752;6.100;2022-07-05T08:49:09;25.00;99.90
13113;DHT22;6622;49.752;6.100;2022-07-05T08:51:38;24.60;99.90
13113;DHT22;6622;49.752;6.100;2022-07-05T08:54:02;25.00;99.90
13113;DHT22;6622;49.752;6.100;2022-07-05T08:56:29;24.90;99.90
13113;DHT22;6622;49.752;6.100;2022-07-05T08:58:56;24.70;99.90
13113;DHT22;6622;49.752;6.100;2022-07-05T09:01:22;24.60;99.90
13113;DHT22;6622;49.752;6.100;2022-07-05T09:03:50;24.60;99.90
13113;DHT22;6622;49.752;6.100;2022-07-05T09:06:17;24.80;99.90
13113;DHT22;6622;49.752;6.100;2022-07-05T09:08:43;24.70;99.90
13113;DHT22;6622;49.752;6.100;2022-07-05T09:11:14;25.20;99.90
13113;DHT22;6622;49.752;6.100;2022-07-05T09:13:37;25.20;99.90
13113;DHT22;6622;49.752;6.100;2022-07-05T09:16:03;25.30;99.90
13113;DHT22;6622;49.752;6.100;2022-07-05T09:18:51;25.30;99.90
13113;DHT22;6622;49.752;6.100;2022-07-05T09:21:18;25.50;99.90
13113;DHT22;6622;49.752;6.100;2022-07-05T09:23:45;25.40;99.90
13113;DHT22;6622;49.752;6.100;2022-07-05T09:26:11;25.90;99.90
13113;DHT22;6622;49.752;6.100;2022-07-05T09:28:38;26.10;99.90
13113;DHT22;6622;49.752;6.100;2022-07-05T09:31:05;26.10;99.90
13113;DHT22;6622;49.752;6.100;2022-07-05T09:33:31;26.40;99.90
13113;DHT22;6622;49.752;6.100;2022-07-05T09:35:58;26.60;99.90
13113;DHT22;6622;49.752;6.100;2022-07-05T09:38:25;26.50;99.90
13113;DHT22;6622;49.752;6.100;2022-07-05T09:40:55;26.50;99.90
13113;DHT22;6622;49.752;6.100;2022-07-05T09:43:28;26.90;99.90
13113;DHT22;6622;49.752;6.100;2022-07-05T09:48:24;26.80;99.90
13113;DHT22;6622;49.752;6.100;2022-07-05T09:50:50;26.80;99.90
13113;DHT22;6622;49.752;6.100;2022-07-05T09:53:20;26.70;99.90
13113;DHT22;6622;49.752;6.100;2022-07-05T09:56:04;26.50;99.90
13113;DHT22;6622;49.752;6.100;2022-07-05T09:58:26;26.50;99.90
13113;DHT22;6622;49.752;6.100;2022-07-05T10:00:53;26.40;99.90
13113;DHT22;6622;49.752;6.100;2022-07-05T10:03:20;26.00;99.90
13113;DHT22;6622;49.752;6.100;2022-07-05T10:05:47;26.00;99.90
13113;DHT22;6622;49.752;6.100;2022-07-05T10:08:14;26.30;99.90
13113;DHT22;6622;49.752;6.100;2022-07-05T10:10:41;26.40;99.90
13113;DHT22;6622;49.752;6.100;2022-07-05T10:13:08;27.10;99.90
13113;DHT22;6622;49.752;6.100;2022-07-05T10:15:35;27.10;99.90
13113;DHT22;6622;49.752;6.100;2022-07-05T10:23:03;27.00;99.90
13113;DHT22;6622;49.752;6.100;2022-07-05T10:25:30;27.00;99.90
13113;DHT22;6622;49.752;6.100;2022-07-05T10:27:57;27.00;99.90
13113;DHT22;6622;49.752;6.100;2022-07-05T10:30:24;27.00;99.90
13113;DHT22;6622;49.752;6.100;2022-07-05T10:32:50;27.00;99.90
13113;DHT22;6622;49.752;6.100;2022-07-05T10:35:17;26.80;99.90
13113;DHT22;6622;49.752;6.100;2022-07-05T10:37:44;27.10;99.90
13113;DHT22;6622;49.752;6.100;2022-07-05T10:40:10;27.40;99.90
13113;DHT22;6622;49.752;6.100;2022-07-05T10:42:54;27.50;99.90
13113;DHT22;6622;49.752;6.100;2022-07-05T10:45:25;27.50;99.90
13113;DHT22;6622;49.752;6.100;2022-07-05T10:50:48;27.70;99.90
13113;DHT22;6622;49.752;6.100;2022-07-05T10:53:19;27.80;99.90
13113;DHT22;6622;49.752;6.100;2022-07-05T10:55:54;27.80;99.90
13113;DHT22;6622;49.752;6.100;2022-07-05T10:58:27;27.70;99.90
13113;DHT22;6622;49.752;6.100;2022-07-05T11:06:06;28.20;99.90
13113;DHT22;6622;49.752;6.100;2022-07-05T11:11:22;28.10;99.90
13113;DHT22;6622;49.752;6.100;2022-07-05T11:13:44;28.10;99.90
13113;DHT22;6622;49.752;6.100;2022-07-05T11:16:21;28.10;99.90
13113;DHT22;6622;49.752;6.100;2022-07-05T11:18:47;28.00;99.90
13113;DHT22;6622;49.752;6.100;2022-07-05T11:21:20;28.20;99.90
13113;DHT22;6622;49.752;6.100;2022-07-05T11:23:43;28.20;99.90
13113;DHT22;6622;49.752;6.100;2022-07-05T11:26:11;28.30;99.90
13113;DHT22;6622;49.752;6.100;2022-07-05T11:28:46;28.00;99.90
13113;DHT22;6622;49.752;6.100;2022-07-05T11:31:12;28.00;99.90
13113;DHT22;6622;49.752;6.100;2022-07-05T11:33:42;27.10;99.90
13113;DHT22;6622;49.752;6.100;2022-07-05T11:36:24;26.50;99.90
13113;DHT22;6622;49.752;6.100;2022-07-05T11:39:09;26.60;99.90
13113;DHT22;6622;49.752;6.100;2022-07-05T11:41:34;27.10;99.90
13113;DHT22;6622;49.752;6.100;2022-07-05T11:44:01;27.50;99.90
13113;DHT22;6622;49.752;6.100;2022-07-05T11:46:28;27.70;99.90
13113;DHT22;6622;49.752;6.100;2022-07-05T11:48:54;28.00;99.90
13113;DHT22;6622;49.752;6.100;2022-07-05T11:51:21;28.10;99.90
13113;DHT22;6622;49.752;6.100;2022-07-05T11:53:48;28.30;99.90
13113;DHT22;6622;49.752;6.100;2022-07-05T11:56:15;28.30;99.90
13113;DHT22;6622;49.752;6.100;2022-07-05T11:58:42;27.90;99.90
13113;DHT22;6622;49.752;6.100;2022-07-05T12:01:08;27.40;99.90
13113;DHT22;6622;49.752;6.100;2022-07-05T12:03:35;26.60;99.90
13113;DHT22;6622;49.752;6.100;2022-07-05T12:06:11;26.50;99.90
13113;DHT22;6622;49.752;6.100;2022-07-05T12:08:37;26.60;99.90
13113;DHT22;6622;49.752;6.100;2022-07-05T12:11:04;26.90;99.90
13113;DHT22;6622;49.752;6.100;2022-07-05T12:13:49;27.20;99.90
13113;DHT22;6622;49.752;6.100;2022-07-05T12:16:15;27.40;99.90
13113;DHT22;6622;49.752;6.100;2022-07-05T12:18:56;27.80;99.90
13113;DHT22;6622;49.752;6.100;2022-07-05T12:21:12;27.80;99.90
13113;DHT22;6622;49.752;6.100;2022-07-05T12:23:40;27.90;99.90
13113;DHT22;6622;49.752;6.100;2022-07-05T12:26:05;27.40;99.90
13113;DHT22;6622;49.752;6.100;2022-07-05T12:28:32;26.70;99.90
13113;DHT22;6622;49.752;6.100;2022-07-05T12:30:59;26.50;99.90
13113;DHT22;6622;49.752;6.100;2022-07-05T12:33:25;26.90;99.90
13113;DHT22;6622;49.752;6.100;2022-07-05T12:35:52;27.10;99.90
13113;DHT22;6622;49.752;6.100;2022-07-05T12:38:19;27.50;99.90
13113;DHT22;6622;49.752;6.100;2022-07-05T12:40:56;27.80;99.90
13113;DHT22;6622;49.752;6.100;2022-07-05T12:43:12;27.90;99.90
13113;DHT22;6622;49.752;6.100;2022-07-05T12:45:42;27.60;99.90
13113;DHT22;6622;49.752;6.100;2022-07-05T12:48:09;27.50;99.90
13113;DHT22;6622;49.752;6.100;2022-07-05T12:50:50;27.50;99.90
13113;DHT22;6622;49.752;6.100;2022-07-05T12:53:17;27.20;99.90
13113;DHT22;6622;49.752;6.100;2022-07-05T12:56:07;26.90;99.90
13113;DHT22;6622;49.752;6.100;2022-07-05T12:58:52;26.80;99.90
13113;DHT22;6622;49.752;6.100;2022-07-05T13:01:20;26.50;99.90
13113;DHT22;6622;49.752;6.100;2022-07-05T13:04:18;26.20;99.90
13113;DHT22;6622;49.752;6.100;2022-07-05T13:07:00;25.90;99.90
13113;DHT22;6622;49.752;6.100;2022-07-05T13:12:11;25.60;99.90
13113;DHT22;6622;49.752;6.100;2022-07-05T13:14:40;25.50;99.90
13113;DHT22;6622;49.752;6.100;2022-07-05T13:17:07;25.70;99.90
13113;DHT22;6622;49.752;6.100;2022-07-05T13:19:33;26.30;99.90
13113;DHT22;6622;49.752;6.100;2022-07-05T13:22:00;26.90;99.90
13113;DHT22;6622;49.752;6.100;2022-07-05T13:24:27;27.20;99.90
13113;DHT22;6622;49.752;6.100;2022-07-05T13:26:53;27.40;99.90
13113;DHT22;6622;49.752;6.100;2022-07-05T13:29:20;27.00;99.90
13113;DHT22;6622;49.752;6.100;2022-07-05T13:31:46;26.40;99.90
13113;DHT22;6622;49.752;6.100;2022-07-05T13:34:14;25.60;99.90
13113;DHT22;6622;49.752;6.100;2022-07-05T13:36:40;25.60;99.90
13113;DHT22;6622;49.752;6.100;2022-07-05T13:39:07;25.50;99.90
13113;DHT22;6622;49.752;6.100;2022-07-05T13:41:34;25.90;99.90
13113;DHT22;6622;49.752;6.100;2022-07-05T13:44:01;25.90;99.90
13113;DHT22;6622;49.752;6.100;2022-07-05T13:46:28;26.50;99.90
13113;DHT22;6622;49.752;6.100;2022-07-05T13:48:54;26.90;99.90
13113;DHT22;6622;49.752;6.100;2022-07-05T13:51:21;26.90;99.90
13113;DHT22;6622;49.752;6.100;2022-07-05T13:53:48;27.20;99.90
13113;DHT22;6622;49.752;6.100;2022-07-05T13:56:15;27.10;99.90
13113;DHT22;6622;49.752;6.100;2022-07-05T13:58:41;27.40;99.90
13113;DHT22;6622;49.752;6.100;2022-07-05T14:01:09;26.80;99.90
13113;DHT22;6622;49.752;6.100;2022-07-05T14:03:35;26.70;99.90
13113;DHT22;6622;49.752;6.100;2022-07-05T14:06:02;26.30;99.90
13113;DHT22;6622;49.752;6.100;2022-07-05T14:08:29;26.30;99.90
13113;DHT22;6622;49.752;6.100;2022-07-05T14:10:56;26.80;99.90
13113;DHT22;6622;49.752;6.100;2022-07-05T14:13:23;27.20;99.90
13113;DHT22;6622;49.752;6.100;2022-07-05T14:15:49;27.20;99.90
13113;DHT22;6622;49.752;6.100;2022-07-05T14:18:17;27.30;99.90
13113;DHT22;6622;49.752;6.100;2022-07-05T14:20:43;27.60;99.90
13113;DHT22;6622;49.752;6.100;2022-07-05T14:23:10;27.90;99.90
13113;DHT22;6622;49.752;6.100;2022-07-05T14:25:37;27.90;99.90
13113;DHT22;6622;49.752;6.100;2022-07-05T14:28:03;27.90;99.90
13113;DHT22;6622;49.752;6.100;2022-07-05T14:30:30;28.10;99.90
13113;DHT22;6622;49.752;6.100;2022-07-05T14:32:57;27.90;99.90
13113;DHT22;6622;49.752;6.100;2022-07-05T14:35:24;27.80;99.90
13113;DHT22;6622;49.752;6.100;2022-07-05T14:37:51;27.80;99.90
13113;DHT22;6622;49.752;6.100;2022-07-05T14:40:17;28.00;99.90
13113;DHT22;6622;49.752;6.100;2022-07-05T14:42:45;27.40;99.90
13113;DHT22;6622;49.752;6.100;2022-07-05T14:45:11;27.40;99.90
13113;DHT22;6622;49.752;6.100;2022-07-05T14:47:38;27.30;99.90
13113;DHT22;6622;49.752;6.100;2022-07-05T14:50:04;27.50;99.90
13113;DHT22;6622;49.752;6.100;2022-07-05T14:52:31;27.40;99.90
13113;DHT22;6622;49.752;6.100;2022-07-05T14:54:58;27.60;99.90
13113;DHT22;6622;49.752;6.100;2022-07-05T14:57:25;27.50;99.90
13113;DHT22;6622;49.752;6.100;2022-07-05T14:59:52;27.50;99.90
13113;DHT22;6622;49.752;6.100;2022-07-05T15:02:18;27.20;99.90
13113;DHT22;6622;49.752;6.100;2022-07-05T15:04:46;26.30;99.90
13113;DHT22;6622;49.752;6.100;2022-07-05T15:07:12;26.20;99.90
13113;DHT22;6622;49.752;6.100;2022-07-05T15:09:39;26.60;99.90
13113;DHT22;6622;49.752;6.100;2022-07-05T15:12:06;26.80;99.90
13113;DHT22;6622;49.752;6.100;2022-07-05T15:14:32;27.10;99.90
13113;DHT22;6622;49.752;6.100;2022-07-05T15:17:00;27.40;99.90
13113;DHT22;6622;49.752;6.100;2022-07-05T15:19:26;27.40;99.90
13113;DHT22;6622;49.752;6.100;2022-07-05T15:21:54;27.40;99.90
13113;DHT22;6622;49.752;6.100;2022-07-05T15:24:20;27.40;99.90
13113;DHT22;6622;49.752;6.100;2022-07-05T15:26:47;27.40;99.90
13113;DHT22;6622;49.752;6.100;2022-07-05T15:29:14;27.40;99.90
13113;DHT22;6622;49.752;6.100;2022-07-05T15:31:41;27.30;99.90
13113;DHT22;6622;49.752;6.100;2022-07-05T15:34:08;27.30;99.90
13113;DHT22;6622;49.752;6.100;2022-07-05T15:36:34;27.20;99.90
13113;DHT22;6622;49.752;6.100;2022-07-05T15:39:03;27.40;99.90
13113;DHT22;6622;49.752;6.100;2022-07-05T15:41:29;27.00;99.90
13113;DHT22;6622;49.752;6.100;2022-07-05T15:43:55;27.00;99.90
13113;DHT22;6622;49.752;6.100;2022-07-05T15:46:22;26.80;99.90
13113;DHT22;6622;49.752;6.100;2022-07-05T15:48:48;26.40;99.90
13113;DHT22;6622;49.752;6.100;2022-07-05T15:51:16;26.10;99.90
13113;DHT22;6622;49.752;6.100;2022-07-05T15:53:43;26.10;99.90
13113;DHT22;6622;49.752;6.100;2022-07-05T15:56:09;26.10;99.90
13113;DHT22;6622;49.752;6.100;2022-07-05T15:58:35;26.00;99.90
13113;DHT22;6622;49.752;6.100;2022-07-05T16:01:03;25.80;99.90
13113;DHT22;6622;49.752;6.100;2022-07-05T16:03:30;25.80;99.90
13113;DHT22;6622;49.752;6.100;2022-07-05T16:05:56;26.00;99.90